.
WxDataArchive / Data Records for 2011-05-07
2011-05-06 May 2011 2011-05-08

Data Records for Saturday, 07 May 2011

Time	Temp	Chill	HIndex	Humid	Dewpt	 Wind 	HiWind	WindDir	Rain 	Barom 
-----	----	-----	------	-----	-----	------	------	-------	-----	----- 
00:00	52.2	52.2	52.2	78	45.5	0	0	---	0.00	29.887 
00:05	52.2	52.2	52.2	78	45.5	0	0	---	0.00	29.887 
00:10	52.2	52.2	52.2	78	45.5	0	0	---	0.00	29.887 
00:15	52.2	52.2	52.2	78	45.5	0	0	---	0.00	29.885 
00:20	52.0	52.0	52.0	78	45.4	0	0	---	0.00	29.885 
00:25	51.9	51.9	51.9	78	45.3	0	0	---	0.00	29.885 
00:30	51.7	51.7	51.7	79	45.4	0	0	---	0.00	29.883 
00:35	51.6	51.6	51.6	79	45.3	0	0	---	0.00	29.883 
00:40	51.3	51.3	51.3	79	45.0	0	0	---	0.00	29.883 
00:45	51.1	51.1	51.1	80	45.1	0	0	---	0.00	29.885 
00:50	51.0	51.0	51.0	80	45.0	0	0	---	0.00	29.885 
00:55	51.0	51.0	51.0	80	45.0	0	0	---	0.00	29.885 
01:00	51.0	51.0	51.0	80	45.0	0	0	---	0.00	29.884 
01:05	51.0	51.0	51.0	81	45.4	0	0	---	0.00	29.884 
01:10	51.1	51.1	51.1	81	45.5	0	0	---	0.00	29.884 
01:15	51.3	51.3	51.3	81	45.7	0	0	---	0.00	29.884 
01:20	51.4	51.4	51.4	81	45.8	0	1	248	0.00	29.884 
01:25	51.6	51.6	51.6	81	46.0	0	1	248	0.00	29.884 
01:30	51.6	51.6	51.6	81	46.0	0	1	248	0.00	29.879 
01:35	51.7	51.7	51.7	80	45.7	0	0	---	0.00	29.879 
01:40	51.7	51.7	51.7	81	46.1	0	0	---	0.00	29.879 
01:45	51.9	51.9	51.9	81	46.3	0	0	---	0.00	29.879 
01:50	51.9	51.9	51.9	82	46.6	0	0	---	0.00	29.879 
01:55	51.9	51.9	51.9	82	46.6	0	0	---	0.00	29.879 
02:00	51.9	51.9	51.9	83	46.9	0	0	---	0.00	29.876 
02:05	51.7	51.7	51.7	83	46.7	0	2	248	0.00	29.876 
02:10	51.7	51.7	51.7	83	46.7	0	2	248	0.00	29.876 
02:15	51.7	51.7	51.7	83	46.7	0	2	248	0.00	29.873 
02:20	51.6	51.6	51.6	83	46.6	0	0	---	0.00	29.873 
02:25	51.6	51.6	51.6	83	46.6	0	1	248	0.00	29.873 
02:30	51.6	51.6	51.6	83	46.6	0	0	---	0.00	29.870 
02:35	51.6	51.6	51.6	83	46.6	0	1	248	0.00	29.870 
02:40	51.6	51.6	51.6	83	46.6	0	0	---	0.00	29.870 
02:45	51.6	51.6	51.6	83	46.6	0	1	248	0.00	29.866 
02:50	51.6	51.6	51.6	83	46.6	0	1	248	0.00	29.866 
02:55	51.7	51.7	51.7	83	46.7	0	1	248	0.00	29.866 
03:00	51.7	51.7	51.7	83	46.7	0	2	248	0.00	29.861 
03:05	51.9	51.9	51.9	82	46.6	0	1	248	0.00	29.861 
03:10	52.0	52.0	52.0	82	46.7	0	1	248	0.00	29.861 
03:15	52.2	52.2	52.2	81	46.5	0	1	248	0.00	29.862 
03:20	52.3	52.3	52.3	81	46.6	0	1	248	0.00	29.862 
03:25	52.3	52.3	52.3	80	46.3	0	1	248	0.00	29.862 
03:30	52.5	52.5	52.5	79	46.2	0	1	248	0.00	29.859 
03:35	52.5	52.5	52.5	79	46.2	0	1	248	0.00	29.859 
03:40	52.5	52.5	52.5	78	45.8	0	2	248	0.00	29.859 
03:45	52.8	52.8	52.8	76	45.4	0	1	248	0.00	29.858 
03:50	52.9	52.9	52.9	75	45.2	0	1	248	0.00	29.858 
03:55	53.1	53.1	53.1	74	45.0	0	1	248	0.00	29.858 
04:00	53.2	53.2	53.2	74	45.1	0	2	248	0.00	29.859 
04:05	53.3	53.3	53.3	74	45.2	0	1	248	0.00	29.859 
04:10	53.2	53.2	53.2	74	45.1	0	4	248	0.00	29.859 
04:15	53.2	53.2	53.2	75	45.5	0	1	248	0.00	29.858 
04:20	53.1	53.1	53.1	75	45.4	0	1	248	0.00	29.858 
04:25	52.8	52.8	52.8	76	45.4	0	1	248	0.00	29.858 
04:30	52.6	52.6	52.6	76	45.3	0	1	248	0.00	29.860 
04:35	52.5	52.5	52.5	76	45.2	0	0	---	0.00	29.860 
04:40	52.2	52.2	52.2	77	45.2	0	0	---	0.00	29.860 
04:45	52.0	52.0	52.0	77	45.0	0	1	248	0.00	29.862 
04:50	51.9	51.9	51.9	77	44.9	0	1	248	0.00	29.862 
04:55	51.7	51.7	51.7	77	44.7	0	0	---	0.00	29.862 
05:00	51.6	51.6	51.6	77	44.6	0	0	---	0.00	29.865 
05:05	51.3	51.3	51.3	78	44.7	0	0	---	0.00	29.865 
05:10	51.1	51.1	51.1	78	44.5	0	0	---	0.00	29.865 
05:15	51.0	51.0	51.0	79	44.7	0	0	---	0.00	29.863 
05:20	50.8	50.8	50.8	79	44.5	0	0	---	0.00	29.863 
05:25	50.7	50.7	50.7	80	44.8	0	0	---	0.00	29.863 
05:30	50.5	50.5	50.5	80	44.6	0	0	---	0.00	29.861 
05:35	50.4	50.4	50.4	81	44.8	0	0	---	0.00	29.861 
05:40	50.4	50.4	50.4	81	44.8	0	0	---	0.00	29.861 
05:45	50.4	50.4	50.4	81	44.8	0	0	---	0.00	29.861 
05:50	50.4	50.4	50.4	81	44.8	0	1	248	0.00	29.861 
05:55	50.5	50.5	50.5	81	44.9	0	0	---	0.00	29.861 
06:00	50.7	50.7	50.7	81	45.1	0	0	---	0.00	29.857 
06:05	50.7	50.7	50.7	81	45.1	0	0	---	0.00	29.857 
06:10	50.7	50.7	50.7	81	45.1	0	0	---	0.00	29.857 
06:15	50.7	50.7	50.7	81	45.1	0	1	248	0.00	29.857 
06:20	50.7	50.7	50.7	80	44.8	0	0	---	0.00	29.857 
06:25	50.5	50.5	50.5	80	44.6	0	0	---	0.00	29.857 
06:30	50.5	50.5	50.5	80	44.6	0	0	---	0.00	29.857 
06:35	50.4	50.4	50.4	81	44.8	0	0	---	0.00	29.857 
06:40	50.2	50.2	50.2	81	44.6	0	1	270	0.00	29.857 
06:45	50.1	50.1	50.1	81	44.5	0	0	---	0.00	29.860 
06:50	50.1	50.1	50.1	81	44.5	0	1	270	0.00	29.860 
06:55	50.1	50.1	50.1	82	44.8	0	0	---	0.00	29.860 
07:00	49.9	49.9	49.9	82	44.6	0	1	270	0.00	29.862 
07:05	49.9	49.9	49.9	82	44.6	0	0	---	0.00	29.862 
07:10	49.9	49.9	49.9	82	44.6	0	0	---	0.00	29.862 
07:15	49.9	49.9	49.9	83	44.9	0	0	---	0.00	29.864 
07:20	50.1	50.1	50.1	83	45.1	0	0	---	0.00	29.864 
07:25	50.1	50.1	50.1	83	45.1	0	0	---	0.00	29.864 
07:30	50.1	50.1	50.1	83	45.1	0	0	---	0.00	29.871 
07:35	50.2	50.2	50.2	83	45.2	0	0	---	0.00	29.871 
07:40	50.2	50.2	50.2	84	45.6	0	0	---	0.00	29.871 
07:45	50.4	50.4	50.4	84	45.7	0	0	---	0.00	29.873 
07:50	50.5	50.5	50.5	84	45.8	0	0	---	0.00	29.873 
07:55	50.8	50.8	50.8	84	46.1	0	0	---	0.00	29.873 
08:00	51.1	51.1	51.1	84	46.4	0	0	---	0.00	29.873 
08:05	51.4	51.4	51.4	84	46.7	0	0	---	0.00	29.873 
08:10	51.9	51.9	51.9	84	47.2	0	0	---	0.00	29.873 
08:15	52.2	52.2	52.2	84	47.5	0	0	---	0.00	29.874 
08:20	52.6	52.6	52.6	83	47.6	0	0	---	0.00	29.874 
08:25	53.1	53.1	53.1	83	48.1	0	2	270	0.00	29.874 
08:30	53.3	53.3	53.3	81	47.6	0	1	315	0.00	29.875 
08:35	53.8	53.8	53.8	80	47.8	0	1	315	0.00	29.875 
08:40	54.1	54.1	54.1	79	47.7	0	1	315	0.00	29.875 
08:45	54.4	54.4	54.4	78	47.7	0	1	315	0.00	29.873 
08:50	54.7	54.7	54.7	77	47.6	0	2	248	0.00	29.873 
08:55	55.1	55.1	55.1	77	48.0	0	0	---	0.00	29.873 
09:00	55.4	55.4	55.4	75	47.6	0	3	248	0.00	29.871 
09:05	55.7	55.7	55.7	75	47.9	0	1	270	0.00	29.871 
09:10	55.9	55.9	55.9	73	47.4	1	3	270	0.01	29.871 
09:15	56.2	56.2	56.2	73	47.7	0	1	270	0.00	29.871 
09:20	56.5	56.5	56.5	72	47.6	1	3	270	0.00	29.871 
09:25	56.9	56.9	56.9	72	48.0	0	3	270	0.00	29.871 
09:30	57.5	57.5	57.5	71	48.2	0	2	270	0.00	29.870 
09:35	57.8	57.8	57.8	69	47.7	0	2	270	0.00	29.870 
09:40	58.1	58.1	58.1	68	47.6	0	2	270	0.00	29.870 
09:45	58.4	58.4	58.4	69	48.3	0	2	270	0.00	29.871 
09:50	58.9	58.9	58.9	68	48.4	1	3	292	0.00	29.871 
09:55	59.0	59.0	59.0	66	47.7	1	3	292	0.00	29.871 
10:00	59.3	59.3	59.3	66	47.9	0	1	292	0.00	29.871 
10:05	59.5	59.5	59.5	65	47.7	1	4	292	0.00	29.871 
10:10	59.5	59.5	59.5	65	47.7	1	3	248	0.00	29.871 
10:15	59.5	59.5	59.5	64	47.3	2	4	248	0.00	29.878 
10:20	59.6	59.6	59.6	64	47.4	1	3	270	0.00	29.878 
10:25	59.6	59.6	59.6	63	47.0	2	3	248	0.00	29.878 
10:30	59.8	59.8	59.8	65	48.0	1	3	248	0.00	29.882 
10:35	59.9	59.9	59.9	64	47.7	1	3	248	0.00	29.882 
10:40	59.9	59.9	59.9	64	47.7	1	3	248	0.00	29.882 
10:45	59.8	59.8	59.8	65	48.0	1	2	248	0.00	29.885 
10:50	59.6	59.6	59.6	64	47.4	1	2	248	0.00	29.885 
10:55	59.6	59.6	59.6	65	47.8	0	2	248	0.00	29.885 
11:00	59.5	59.5	59.5	65	47.7	0	2	248	0.00	29.886 
11:05	59.5	59.5	59.5	65	47.7	1	3	248	0.00	29.886 
11:10	59.5	59.5	59.5	66	48.1	0	1	248	0.00	29.886 
11:15	59.5	59.5	59.5	65	47.7	1	3	248	0.00	29.889 
11:20	59.6	59.6	59.6	65	47.8	1	4	248	0.00	29.889 
11:25	59.8	59.8	59.8	66	48.4	0	1	248	0.00	29.889 
11:30	60.1	60.1	60.1	65	48.3	1	2	248	0.00	29.890 
11:35	60.4	60.4	60.4	65	48.6	1	3	248	0.00	29.890 
11:40	60.4	60.4	60.4	65	48.6	0	2	248	0.00	29.890 
11:45	60.5	60.5	60.5	65	48.7	1	2	248	0.00	29.889 
11:50	60.4	60.4	60.4	65	48.6	0	1	248	0.00	29.889 
11:55	60.4	60.4	60.4	65	48.6	0	3	248	0.00	29.889 
12:00	60.4	60.4	60.4	65	48.6	1	3	248	0.00	29.895 
12:05	60.5	60.5	60.5	65	48.7	0	1	248	0.00	29.895 
12:10	60.5	60.5	60.5	66	49.1	0	1	248	0.00	29.895 
12:15	60.5	60.5	60.5	66	49.1	0	1	248	0.00	29.898 
12:20	60.5	60.5	60.5	65	48.7	0	1	248	0.00	29.898 
12:25	60.7	60.7	60.7	67	49.7	0	1	248	0.00	29.898 
12:30	60.7	60.7	60.7	65	48.9	0	1	248	0.00	29.897 
12:35	60.9	60.9	60.9	65	49.1	0	1	248	0.00	29.897 
12:40	60.9	60.9	60.9	67	49.9	0	1	248	0.00	29.897 
12:45	60.9	60.9	60.9	64	48.6	0	1	248	0.00	29.897 
12:50	61.0	61.0	61.0	62	47.9	0	2	248	0.00	29.897 
12:55	61.0	61.0	61.0	62	47.9	1	2	248	0.00	29.897 
13:00	61.0	61.0	61.0	62	47.9	0	2	248	0.00	29.898 
13:05	61.0	61.0	61.0	62	47.9	0	3	248	0.00	29.898 
13:10	61.0	61.0	61.0	64	48.7	0	3	248	0.00	29.898 
13:15	60.9	60.9	60.9	65	49.1	0	2	248	0.00	29.899 
13:20	60.7	60.7	60.7	66	49.3	0	1	248	0.00	29.899 
13:25	60.4	60.4	60.4	63	47.7	0	4	248	0.00	29.899 
13:30	60.2	60.2	60.2	63	47.6	0	2	248	0.00	29.898 
13:35	60.1	60.1	60.1	64	47.9	0	0	---	0.00	29.898 
13:40	59.9	59.9	59.9	65	48.1	0	0	---	0.00	29.898 
13:45	59.9	59.9	59.9	65	48.1	0	1	248	0.00	29.891 
13:50	60.1	60.1	60.1	66	48.7	0	0	---	0.00	29.891 
13:55	60.1	60.1	60.1	64	47.9	0	1	248	0.00	29.891 
14:00	60.2	60.2	60.2	63	47.6	0	0	---	0.00	29.886 
14:05	60.4	60.4	60.4	62	47.3	0	1	248	0.00	29.886 
14:10	60.5	60.5	60.5	60	46.5	0	2	248	0.00	29.886 
14:15	60.7	60.7	60.7	63	48.0	0	0	---	0.00	29.884 
14:20	60.9	60.9	60.9	61	47.4	0	2	248	0.00	29.884 
14:25	60.9	60.9	60.9	59	46.5	1	2	248	0.00	29.884 
14:30	60.9	60.9	60.9	62	47.8	0	1	248	0.00	29.883 
14:35	60.9	60.9	60.9	61	47.4	0	1	248	0.00	29.883 
14:40	60.9	60.9	60.9	61	47.4	0	3	180	0.00	29.883 
14:45	60.7	60.7	60.7	62	47.6	0	2	180	0.00	29.880 
14:50	60.7	60.7	60.7	62	47.6	0	3	135	0.00	29.880 
14:55	60.5	60.5	60.5	63	47.8	0	1	135	0.00	29.880 
15:00	60.5	60.5	60.5	64	48.3	0	1	135	0.00	29.871 
15:05	60.5	60.5	60.5	63	47.8	0	2	135	0.00	29.871 
15:10	60.5	60.5	60.5	63	47.8	0	1	135	0.00	29.871 
15:15	60.5	60.5	60.5	61	47.0	0	4	135	0.00	29.857 
15:20	60.7	60.7	60.7	62	47.6	0	3	112	0.00	29.857 
15:25	60.9	60.9	60.9	60	46.9	1	4	112	0.00	29.857 
15:30	61.2	61.2	61.2	61	47.6	1	3	112	0.00	29.853 
15:35	61.6	61.6	61.6	62	48.4	0	3	112	0.00	29.853 
15:40	61.8	61.8	61.8	59	47.3	2	4	112	0.00	29.853 
15:45	61.8	61.8	61.8	60	47.8	1	4	112	0.00	29.847 
15:50	62.0	62.0	62.0	62	48.8	1	4	112	0.00	29.847 
15:55	61.8	61.8	61.8	59	47.3	1	3	112	0.00	29.847 
16:00	61.8	61.8	61.8	60	47.8	1	2	112	0.00	29.840 
16:05	61.6	61.6	61.6	59	47.1	1	2	112	0.00	29.840 
16:10	61.3	61.3	61.3	58	46.4	1	3	112	0.00	29.840 
16:15	61.0	61.0	61.0	59	46.6	1	4	112	0.00	29.838 
16:20	61.0	61.0	61.0	60	47.0	1	3	112	0.00	29.838 
16:25	61.0	61.0	61.0	61	47.5	0	2	112	0.00	29.838 
16:30	60.9	60.9	60.9	61	47.4	0	3	112	0.00	29.838 
16:35	60.9	60.9	60.9	62	47.8	0	2	112	0.00	29.838 
16:40	60.9	60.9	60.9	63	48.2	0	1	112	0.00	29.838 
16:45	60.7	60.7	60.7	62	47.6	0	2	112	0.00	29.845 
16:50	60.5	60.5	60.5	61	47.0	1	4	112	0.00	29.845 
16:55	60.4	60.4	60.4	63	47.7	1	4	112	0.00	29.845 
17:00	60.2	60.2	60.2	66	48.8	1	3	112	0.01	29.852 
17:05	59.8	59.8	59.8	68	49.2	0	2	112	0.00	29.852 
17:10	59.3	59.3	59.3	71	49.9	0	1	112	0.01	29.852 
17:15	58.7	58.7	58.7	75	50.8	0	0	---	0.01	29.867 
17:20	58.1	58.1	58.1	79	51.6	0	0	---	0.01	29.867 
17:25	57.5	57.5	57.5	81	51.7	0	0	---	0.01	29.867 
17:30	57.0	57.0	57.0	83	51.9	0	0	---	0.02	29.856 
17:35	56.6	56.6	56.6	84	51.8	0	0	---	0.01	29.856 
17:40	56.2	56.2	56.2	85	51.7	0	0	---	0.02	29.856 
17:45	55.9	55.9	55.9	87	52.1	0	2	112	0.03	29.872 
17:50	55.7	55.7	55.7	89	52.5	1	4	112	0.03	29.872 
17:55	55.4	55.4	55.4	90	52.5	2	4	112	0.03	29.872 
18:00	55.0	55.0	55.0	91	52.4	3	5	90	0.01	29.827 
18:05	54.8	54.8	54.8	92	52.5	1	5	90	0.00	29.827 
18:10	54.7	54.7	54.7	92	52.4	0	3	68	0.00	29.827 
18:15	54.8	54.8	54.8	92	52.5	0	0	---	0.00	29.858 
18:20	55.0	55.0	55.0	92	52.7	0	1	68	0.00	29.858 
18:25	54.8	54.8	54.8	92	52.5	1	2	68	0.00	29.858 
18:30	54.7	54.7	54.7	92	52.4	0	1	68	0.00	29.872 
18:35	54.7	54.7	54.7	92	52.4	0	2	68	0.01	29.872 
18:40	54.5	54.5	54.5	92	52.2	0	1	68	0.01	29.872 
18:45	54.5	54.5	54.5	92	52.2	0	2	68	0.01	29.859 
18:50	54.5	54.5	54.5	93	52.5	0	1	68	0.00	29.859 
18:55	54.5	54.5	54.5	93	52.5	0	0	---	0.01	29.859 
19:00	54.5	54.5	54.5	93	52.5	0	1	68	0.00	29.868 
19:05	54.5	54.5	54.5	93	52.5	1	3	68	0.00	29.868 
19:10	54.5	54.5	54.5	93	52.5	2	4	68	0.00	29.868 
19:15	54.4	54.4	54.4	93	52.4	2	4	68	0.01	29.854 
19:20	54.4	54.4	54.4	94	52.7	1	4	68	0.00	29.854 
19:25	54.4	54.4	54.4	94	52.7	1	3	68	0.00	29.854 
19:30	54.5	54.5	54.5	94	52.8	1	3	68	0.00	29.857 
19:35	54.5	54.5	54.5	94	52.8	0	2	68	0.00	29.857 
19:40	54.5	54.5	54.5	94	52.8	1	2	68	0.00	29.857 
19:45	54.5	54.5	54.5	94	52.8	1	4	68	0.00	29.858 
19:50	54.5	54.5	54.5	94	52.8	0	3	68	0.00	29.858 
19:55	54.5	54.5	54.5	93	52.5	1	5	68	0.00	29.858 
20:00	54.5	54.5	54.5	93	52.5	1	3	68	0.00	29.861 
20:05	54.5	54.5	54.5	93	52.5	0	3	68	0.00	29.861 
20:10	54.5	54.5	54.5	93	52.5	0	2	68	0.00	29.861 
20:15	54.4	54.4	54.4	93	52.4	0	1	68	0.00	29.870 
20:20	54.4	54.4	54.4	93	52.4	0	0	---	0.00	29.870 
20:25	54.2	54.2	54.2	93	52.2	0	1	68	0.00	29.870 
20:30	54.2	54.2	54.2	93	52.2	0	1	68	0.00	29.872 
20:35	54.2	54.2	54.2	93	52.2	0	1	68	0.00	29.872 
20:40	54.1	54.1	54.1	94	52.4	0	1	68	0.00	29.872 
20:45	54.1	54.1	54.1	94	52.4	0	2	68	0.00	29.874 
20:50	54.1	54.1	54.1	94	52.4	0	0	---	0.00	29.874 
20:55	54.1	54.1	54.1	94	52.4	0	0	---	0.00	29.874 
21:00	54.1	54.1	54.1	94	52.4	0	1	68	0.00	29.882 
21:05	54.1	54.1	54.1	94	52.4	0	1	68	0.00	29.882 
21:10	54.1	54.1	54.1	94	52.4	0	1	68	0.00	29.882 
21:15	54.1	54.1	54.1	94	52.4	0	2	68	0.00	29.879 
21:20	53.9	53.9	53.9	94	52.2	0	2	68	0.00	29.879 
21:25	53.9	53.9	53.9	94	52.2	0	1	68	0.00	29.879 
21:30	53.8	53.8	53.8	94	52.1	0	0	---	0.00	29.884 
21:35	53.5	53.5	53.5	94	51.8	0	1	68	0.00	29.884 
21:40	53.3	53.3	53.3	94	51.6	0	0	---	0.00	29.884 
21:45	53.2	53.2	53.2	94	51.5	0	0	---	0.00	29.884 
21:50	53.1	53.1	53.1	94	51.4	0	0	---	0.00	29.884 
21:55	52.9	52.9	52.9	94	51.2	0	1	68	0.00	29.884 
22:00	52.8	52.8	52.8	94	51.1	0	3	68	0.00	29.885 
22:05	52.8	52.8	52.8	94	51.1	0	1	68	0.00	29.885 
22:10	52.6	52.6	52.6	94	50.9	0	1	68	0.00	29.885 
22:15	52.3	52.3	52.3	94	50.6	0	1	68	0.00	29.883 
22:20	52.2	52.2	52.2	94	50.5	0	1	68	0.00	29.883 
22:25	52.0	52.0	52.0	94	50.3	0	1	68	0.00	29.883 
22:30	51.9	51.9	51.9	94	50.2	0	1	68	0.00	29.882 
22:35	51.7	51.7	51.7	94	50.0	0	1	68	0.00	29.882 
22:40	51.6	51.6	51.6	95	50.2	0	0	---	0.00	29.882 
22:45	51.4	51.4	51.4	95	50.0	0	1	68	0.00	29.885 
22:50	51.3	51.3	51.3	95	49.9	0	2	68	0.00	29.885 
22:55	51.3	51.3	51.3	95	49.9	0	1	68	0.00	29.885 
23:00	51.3	51.3	51.3	95	49.9	0	1	68	0.00	29.882 
23:05	51.3	51.3	51.3	95	49.9	0	1	68	0.00	29.882 
23:10	51.1	51.1	51.1	95	49.7	0	1	68	0.00	29.882 
23:15	51.0	51.0	51.0	95	49.6	0	0	---	0.00	29.881 
23:20	50.8	50.8	50.8	95	49.4	0	0	---	0.00	29.881 
23:25	50.7	50.7	50.7	95	49.3	0	0	---	0.00	29.881 
23:30	50.5	50.5	50.5	95	49.1	0	0	---	0.00	29.885 
23:35	50.2	50.2	50.2	95	48.8	0	0	---	0.00	29.885 
23:40	49.9	49.9	49.9	95	48.5	0	0	---	0.00	29.885 
23:45	49.8	49.8	49.8	95	48.4	0	0	---	0.00	29.886 
23:50	49.6	49.6	49.6	95	48.2	0	0	---	0.00	29.886 
23:55	49.6	49.6	49.6	95	48.2	0	0	---	0.00	29.886 

CoCoRaHS
IN-AL-39
A2 Web Hosting
Creative Commons License
GoDaddy
search engine by freefind advanced

loaded 2018-11-17 13:18:02 • last modified 2010-11-18 10:43:29
Privacy PolicyDisclaimer
• wx.awcolley.com is powered by PmWiki v.2002016 •
• all content (unless otherwise noted) © 2018 A W Colley